createdAt,value
2022-10-03T00:01:18.191Z,97863.53
2022-10-03T00:04:13.540Z,97871.63
2022-10-03T00:07:13.531Z,97874.53
2022-10-03T00:09:50.605Z,97862.03
2022-10-03T00:12:47.266Z,97868.66
2022-10-03T00:15:42.750Z,97865.44
2022-10-03T00:18:35.189Z,97868.28
2022-10-03T00:21:07.687Z,97868.28
2022-10-03T00:23:49.525Z,97873.38
2022-10-03T00:26:30.512Z,97876.38
2022-10-03T00:29:18.239Z,97873.25
2022-10-03T00:31:56.149Z,97880.53
2022-10-03T00:34:31.644Z,97888.13
2022-10-03T00:37:27.297Z,97883.53
2022-10-03T00:40:02.860Z,97887.38
2022-10-03T00:43:00.699Z,97900.06
2022-10-03T00:45:44.492Z,97897.41
2022-10-03T00:48:45.019Z,97900.56
2022-10-03T00:51:32.761Z,97908.03
2022-10-03T00:54:20.991Z,97912.69
2022-10-03T00:57:14.288Z,97924.22
2022-10-03T01:00:13.519Z,97914.19
2022-10-03T01:02:39.838Z,97921.97
2022-10-03T01:05:57.024Z,97919.78
2022-10-03T01:08:29.070Z,97930.56
2022-10-03T01:11:09.484Z,97938.44
2022-10-03T01:13:59.195Z,97933.81
2022-10-03T01:16:51.790Z,97942.69
2022-10-03T01:19:48.423Z,97942.69
2022-10-03T01:22:53.259Z,97945.69
2022-10-03T01:25:45.358Z,97950.47
2022-10-03T01:28:45.548Z,97950.09
2022-10-03T01:31:17.813Z,97966.13
2022-10-03T01:33:54.972Z,97973.69
2022-10-03T01:36:38.373Z,97963.34
2022-10-03T01:39:26.608Z,97960.81
2022-10-03T01:42:02.078Z,97963.94
2022-10-03T01:44:45.270Z,97962.66
2022-10-03T01:47:24.017Z,97950.03
2022-10-03T01:50:38.519Z,97953.16
2022-10-03T01:53:33.224Z,97958.44
2022-10-03T01:56:10.955Z,97967.84
2022-10-03T01:58:57.716Z,97980.69
2022-10-03T02:01:54.096Z,97965.03
2022-10-03T02:04:35.640Z,97973.97
2022-10-03T02:07:29.667Z,97966.47
2022-10-03T02:10:02.957Z,97963.13
2022-10-03T02:12:40.480Z,97975.88
2022-10-03T02:15:28.019Z,97969.44
2022-10-03T02:17:58.218Z,97973.69
2022-10-03T02:20:28.306Z,97982.31
2022-10-03T02:22:57.765Z,97976.16
2022-10-03T02:25:50.494Z,97991.81
2022-10-03T02:28:38.811Z,98000.22
2022-10-03T02:31:33.811Z,98003.84
2022-10-03T02:34:21.994Z,98006.13
2022-10-03T02:37:05.327Z,98025.38
2022-10-03T02:40:07.148Z,98027.16
2022-10-03T02:43:15.192Z,98026.31
2022-10-03T02:46:06.571Z,98029.00
2022-10-03T02:49:24.049Z,98029.00
2022-10-03T02:52:27.246Z,98040.56
2022-10-03T02:55:07.664Z,98039.91
2022-10-03T02:57:53.074Z,98046.81
2022-10-03T03:00:21.459Z,98036.91
2022-10-03T03:03:22.588Z,98045.47
2022-10-03T03:06:29.194Z,98036.47
2022-10-03T03:09:00.718Z,98035.81
2022-10-03T03:11:54.323Z,98041.31
2022-10-03T03:14:29.543Z,98052.19
2022-10-03T03:17:07.087Z,98052.56
2022-10-03T03:19:53.237Z,98046.97
2022-10-03T03:22:38.363Z,98053.25
2022-10-03T03:25:31.792Z,98055.28
2022-10-03T03:28:16.114Z,98054.75
2022-10-03T03:30:54.703Z,98060.56
2022-10-03T03:33:38.922Z,98057.97
2022-10-03T03:36:26.365Z,98053.03
2022-10-03T03:38:58.522Z,98049.56
2022-10-03T03:41:31.075Z,98051.91
2022-10-03T03:44:09.849Z,98044.63
2022-10-03T03:46:53.584Z,98048.75
2022-10-03T03:49:49.884Z,98056.69
2022-10-03T03:52:38.339Z,98050.09
2022-10-03T03:55:29.837Z,98054.75
2022-10-03T03:58:01.778Z,98056.69
2022-10-03T04:00:29.484Z,98065.97
2022-10-03T04:03:12.530Z,98069.28
2022-10-03T04:06:05.911Z,98069.13
2022-10-03T04:08:38.556Z,98076.25
2022-10-03T04:11:17.971Z,98068.69
2022-10-03T04:14:22.119Z,98083.19
2022-10-03T04:17:16.363Z,98085.69
2022-10-03T04:20:09.897Z,98090.13
2022-10-03T04:22:57.527Z,98081.88
2022-10-03T04:25:44.164Z,98088.13
2022-10-03T04:28:17.305Z,98096.06
2022-10-03T04:30:57.668Z,98091.13
2022-10-03T04:33:36.574Z,98089.31
2022-10-03T04:36:21.791Z,98091.81
2022-10-03T04:39:16.511Z,98095.13
2022-10-03T04:41:57.388Z,98087.31
2022-10-03T04:44:27.133Z,98084.22
2022-10-03T04:46:57.302Z,98088.38
2022-10-03T04:49:41.549Z,98082.75
2022-10-03T04:52:14.536Z,98091.50
2022-10-03T04:54:43.437Z,98072.63
2022-10-03T04:57:21.138Z,98079.94
2022-10-03T04:59:58.062Z,98076.34
2022-10-03T05:02:43.495Z,98073.69
2022-10-03T05:05:24.194Z,98079.66
2022-10-03T05:08:00.539Z,98071.38
2022-10-03T05:10:29.655Z,98079.94
2022-10-03T05:13:16.996Z,98072.34
2022-10-03T05:16:06.245Z,98083.91
2022-10-03T05:18:55.635Z,98074.97
2022-10-03T05:21:39.662Z,98080.09
2022-10-03T05:24:36.346Z,98076.78
2022-10-03T05:27:21.494Z,98083.53
2022-10-03T05:30:01.597Z,98091.47
2022-10-03T05:32:38.616Z,98093.44
2022-10-03T05:35:42.839Z,98101.28
2022-10-03T05:38:24.856Z,98092.50
2022-10-03T05:41:04.498Z,98091.47
2022-10-03T05:43:42.916Z,98094.13
2022-10-03T05:46:40.322Z,98104.06
2022-10-03T05:49:34.594Z,98104.72
2022-10-03T05:52:22.339Z,98115.28
2022-10-03T05:55:13.643Z,98120.91
2022-10-03T05:58:07.971Z,98116.94
2022-10-03T06:00:52.808Z,98123.91
2022-10-03T06:03:42.361Z,98132.22
2022-10-03T06:06:26.625Z,98135.22
2022-10-03T06:09:01.979Z,98137.19
2022-10-03T06:11:50.167Z,98142.66
2022-10-03T06:15:03.201Z,98134.25
2022-10-03T06:18:08.473Z,98144.50
2022-10-03T06:21:04.978Z,98143.22
2022-10-03T06:23:45.695Z,98156.47
2022-10-03T06:26:39.774Z,98154.81
2022-10-03T06:29:18.141Z,98158.84
2022-10-03T06:31:49.311Z,98165.78
2022-10-03T06:34:35.291Z,98161.13
2022-10-03T06:37:33.854Z,98173.22
2022-10-03T06:40:28.468Z,98170.94
2022-10-03T06:42:54.908Z,98178.50
2022-10-03T06:45:32.009Z,98174.44
2022-10-03T06:48:30.756Z,98175.28
2022-10-03T06:51:10.750Z,98177.75
2022-10-03T06:53:45.890Z,98168.53
2022-10-03T06:56:19.168Z,98175.47
2022-10-03T06:59:05.447Z,98181.91
2022-10-03T07:01:52.937Z,98168.66
2022-10-03T07:04:48.019Z,98175.28
2022-10-03T07:08:02.253Z,98175.28
2022-10-03T07:10:58.493Z,98150.00
2022-10-03T07:13:43.543Z,98099.94
2022-10-03T07:16:31.988Z,98024.19
2022-10-03T07:19:32.731Z,98296.91
2022-10-03T07:22:20.284Z,98420.88
2022-10-03T07:25:14.970Z,98421.72
2022-10-03T07:27:54.725Z,98425.34
2022-10-03T07:30:23.298Z,98459.47
2022-10-03T07:33:39.150Z,98538.16
2022-10-03T07:36:49.975Z,98574.00
2022-10-03T07:39:40.686Z,98577.00
2022-10-03T07:42:47.051Z,98578.34
2022-10-03T07:45:31.052Z,98592.66
2022-10-03T07:48:09.609Z,98610.88
2022-10-03T07:50:45.056Z,98626.09
2022-10-03T07:53:42.030Z,98620.09
2022-10-03T07:56:27.268Z,98614.84
2022-10-03T07:59:07.365Z,98634.75
2022-10-03T08:01:52.293Z,98647.19
2022-10-03T08:04:26.014Z,98635.56
2022-10-03T08:07:11.266Z,98641.84
2022-10-03T08:10:04.775Z,98634.38
2022-10-03T08:12:50.003Z,98619.81
2022-10-03T08:15:22.632Z,98613.88
2022-10-03T08:18:16.983Z,98629.16
2022-10-03T08:20:58.547Z,98673.00
2022-10-03T08:23:52.536Z,98701.50
2022-10-03T08:26:35.518Z,98678.91
2022-10-03T08:29:31.083Z,98677.38
2022-10-03T08:32:26.349Z,98673.44
2022-10-03T08:35:10.998Z,98667.78
2022-10-03T08:38:18.137Z,98658.69
2022-10-03T08:41:21.871Z,98680.25
2022-10-03T08:44:30.621Z,98660.00
2022-10-03T08:47:16.277Z,98652.00
2022-10-03T08:50:10.057Z,98655.97
2022-10-03T08:53:22.297Z,98632.06
2022-10-03T08:55:59.910Z,98633.94
2022-10-03T08:59:01.116Z,98626.06
2022-10-03T09:01:53.890Z,98616.44
2022-10-03T09:04:52.136Z,98605.03
2022-10-03T09:07:52.112Z,98608.88
2022-10-03T09:10:57.060Z,98631.16
2022-10-03T09:13:51.577Z,98662.16
2022-10-03T09:16:40.028Z,98682.56
2022-10-03T09:19:17.795Z,98661.66
2022-10-03T09:22:11.062Z,98685.69
2022-10-03T09:24:56.439Z,98677.22
2022-10-03T09:27:31.118Z,98684.03
2022-10-03T09:30:25.641Z,98666.63
2022-10-03T09:33:42.542Z,98691.88
2022-10-03T09:36:29.362Z,98697.00
2022-10-03T09:39:16.584Z,98699.22
2022-10-03T09:42:14.032Z,98715.53
2022-10-03T09:44:40.710Z,98755.56
2022-10-03T09:47:22.388Z,98780.47
2022-10-03T09:50:19.397Z,98780.34
2022-10-03T09:53:27.918Z,98804.94
2022-10-03T09:56:44.141Z,98865.94
2022-10-03T09:59:20.644Z,98875.31
2022-10-03T10:02:05.933Z,98932.34
2022-10-03T10:05:23.999Z,98973.81
2022-10-03T10:08:09.997Z,98960.41
2022-10-03T10:10:53.670Z,98967.03
2022-10-03T10:14:07.757Z,98943.97
2022-10-03T10:16:54.075Z,98903.97
2022-10-03T10:19:26.427Z,98909.59
2022-10-03T10:21:59.017Z,98892.19
2022-10-03T10:24:38.050Z,98932.72
2022-10-03T10:27:13.583Z,98966.41
2022-10-03T10:29:52.207Z,98994.25
2022-10-03T10:32:37.366Z,99019.91
2022-10-03T10:35:15.153Z,99060.00
2022-10-03T10:38:26.829Z,99074.16
2022-10-03T10:41:37.731Z,99127.31
2022-10-03T10:44:41.509Z,99164.78
2022-10-03T10:47:31.502Z,99213.31
2022-10-03T10:50:23.105Z,99228.09
2022-10-03T10:53:20.577Z,99257.78
2022-10-03T10:56:06.182Z,99294.03
2022-10-03T10:59:09.055Z,99332.44
2022-10-03T11:02:13.149Z,99383.31
2022-10-03T11:05:21.123Z,99398.22
2022-10-03T11:08:14.892Z,99400.19
2022-10-03T11:11:11.025Z,99398.19
2022-10-03T11:14:05.612Z,99397.34
2022-10-03T11:17:03.434Z,99405.03
2022-10-03T11:20:14.612Z,99432.09
2022-10-03T11:22:50.193Z,99444.28
2022-10-03T11:25:36.441Z,99469.41
2022-10-03T11:28:40.695Z,99517.22
2022-10-03T11:31:31.892Z,99553.47
2022-10-03T11:34:07.217Z,99574.97
2022-10-03T11:36:55.466Z,99555.72
2022-10-03T11:39:41.889Z,99523.63
2022-10-03T11:42:21.218Z,99518.19
2022-10-03T11:45:00.562Z,99508.00
2022-10-03T11:47:40.398Z,99501.00
2022-10-03T11:50:31.544Z,99505.66
2022-10-03T11:53:17.998Z,99496.34
2022-10-03T11:55:58.347Z,99508.97
2022-10-03T11:58:33.890Z,99526.00
2022-10-03T12:01:22.692Z,99513.25
2022-10-03T12:04:12.646Z,99538.53
2022-10-03T12:07:39.166Z,99534.41
2022-10-03T12:10:27.993Z,99552.75
2022-10-03T12:12:56.836Z,99575.63
2022-10-03T12:15:38.856Z,99594.72
2022-10-03T12:18:13.422Z,99598.72
2022-10-03T12:20:48.566Z,99609.75
2022-10-03T12:23:36.856Z,99622.84
2022-10-03T12:26:04.820Z,99616.22
2022-10-03T12:28:42.214Z,99630.75
2022-10-03T12:31:36.155Z,99641.91
2022-10-03T12:34:15.346Z,99623.66
2022-10-03T12:37:10.800Z,99658.44
2022-10-03T12:39:51.525Z,99674.81
2022-10-03T12:42:32.898Z,99706.00
2022-10-03T12:45:14.703Z,99696.91
2022-10-03T12:47:59.250Z,99776.34
2022-10-03T12:50:55.307Z,99745.41
2022-10-03T12:53:45.317Z,99742.88
2022-10-03T12:56:14.345Z,99762.59
2022-10-03T12:58:49.844Z,99774.94
2022-10-03T13:01:25.581Z,99771.34
2022-10-03T13:04:00.753Z,99782.72
2022-10-03T13:07:02.483Z,99788.91
2022-10-03T13:09:53.746Z,99784.53
2022-10-03T13:12:36.792Z,99787.91
2022-10-03T13:15:44.642Z,99779.34
2022-10-03T13:18:21.142Z,99782.34
2022-10-03T13:21:40.789Z,99801.38
2022-10-03T13:24:09.869Z,99815.06
2022-10-03T13:26:52.448Z,99820.16
2022-10-03T13:29:25.394Z,99809.88
2022-10-03T13:32:01.406Z,99819.94
2022-10-03T13:34:32.954Z,99826.22
2022-10-03T13:37:15.382Z,99822.34
2022-10-03T13:39:54.183Z,99818.38
2022-10-03T13:42:31.673Z,99827.06
2022-10-03T13:45:04.967Z,99818.38
2022-10-03T13:47:55.813Z,99820.63
2022-10-03T13:50:31.153Z,99822.56
2022-10-03T13:53:18.643Z,99818.88
2022-10-03T13:55:55.116Z,99800.47
2022-10-03T13:58:27.007Z,99806.47
2022-10-03T14:01:24.450Z,99806.44
2022-10-03T14:04:05.584Z,99809.13
2022-10-03T14:06:51.743Z,99799.44
2022-10-03T14:09:33.576Z,99810.81
2022-10-03T14:12:28.203Z,99811.25
2022-10-03T14:15:15.327Z,99814.81
2022-10-03T14:17:47.240Z,99799.19
2022-10-03T14:20:46.356Z,99810.84
2022-10-03T14:23:20.608Z,99811.34
2022-10-03T14:26:15.755Z,99802.59
2022-10-03T14:29:05.078Z,99787.38
2022-10-03T14:31:57.072Z,99796.47
2022-10-03T14:34:57.588Z,99784.56
2022-10-03T14:37:52.528Z,99773.53
2022-10-03T14:40:27.946Z,99779.31
2022-10-03T14:43:03.351Z,99773.75
2022-10-03T14:45:38.091Z,99776.03
2022-10-03T14:48:12.602Z,99779.00
2022-10-03T14:50:41.788Z,99788.94
2022-10-03T14:53:17.974Z,99781.59
2022-10-03T14:56:02.874Z,99780.63
2022-10-03T14:58:34.282Z,99788.94
2022-10-03T15:01:20.698Z,99781.78
2022-10-03T15:04:15.603Z,99780.56
2022-10-03T15:06:44.762Z,99788.16
2022-10-03T15:09:16.972Z,99763.81
2022-10-03T15:11:52.309Z,99757.56
2022-10-03T15:14:20.231Z,99767.25
2022-10-03T15:16:53.804Z,99772.03
2022-10-03T15:19:31.006Z,99765.41
2022-10-03T15:22:20.356Z,99769.34
2022-10-03T15:24:47.707Z,99761.72
2022-10-03T15:27:21.347Z,99759.72
2022-10-03T15:29:52.341Z,99755.94
2022-10-03T15:32:35.757Z,99744.00
2022-10-03T15:35:03.907Z,99734.53
2022-10-03T15:37:39.785Z,99734.53
2022-10-03T15:40:13.581Z,99735.13
2022-10-03T15:43:01.976Z,99732.06
2022-10-03T15:45:32.677Z,99731.28
2022-10-03T15:48:04.538Z,99729.31
2022-10-03T15:50:35.297Z,99720.72
2022-10-03T15:53:31.562Z,99739.50
2022-10-03T15:56:29.871Z,99719.78
2022-10-03T15:59:06.754Z,99718.31
2022-10-03T16:01:47.615Z,99713.88
2022-10-03T16:04:22.268Z,99702.31
2022-10-03T16:07:13.116Z,99684.81
2022-10-03T16:09:46.232Z,99699.25
2022-10-03T16:12:32.281Z,99690.94
2022-10-03T16:15:15.067Z,99688.00
2022-10-03T16:17:50.047Z,99684.09
2022-10-03T16:20:29.099Z,99696.88
2022-10-03T16:22:58.889Z,99691.16
2022-10-03T16:25:38.679Z,99685.41
2022-10-03T16:28:08.645Z,99664.03
2022-10-03T16:30:57.114Z,99677.19
2022-10-03T16:33:35.564Z,99682.78
2022-10-03T16:36:08.126Z,99676.09
2022-10-03T16:38:38.005Z,99675.56
2022-10-03T16:41:10.239Z,99663.81
2022-10-03T16:43:37.517Z,99665.34
2022-10-03T16:46:18.780Z,99654.31
2022-10-03T16:49:03.977Z,99642.28
2022-10-03T16:51:39.385Z,99635.00
2022-10-03T16:54:11.153Z,99626.31
2022-10-03T16:56:54.521Z,99611.22
2022-10-03T16:59:23.925Z,99594.16
2022-10-03T17:01:57.596Z,99582.72
2022-10-03T17:04:28.774Z,99568.44
2022-10-03T17:07:05.382Z,99552.81
2022-10-03T17:09:40.912Z,99530.03
2022-10-03T17:12:16.131Z,99495.09
2022-10-03T17:14:44.527Z,99444.53
2022-10-03T17:17:29.771Z,99393.88
2022-10-03T17:20:05.816Z,99337.47
2022-10-03T17:22:41.017Z,99262.94
2022-10-03T17:25:49.240Z,99182.13
2022-10-03T17:28:51.117Z,99067.41
2022-10-03T17:31:28.527Z,98915.63
2022-10-03T17:34:10.699Z,98769.19
2022-10-03T17:37:08.022Z,98654.09
2022-10-03T17:39:42.918Z,98437.25
2022-10-03T17:42:36.313Z,98358.53
2022-10-03T17:45:25.446Z,98298.59
2022-10-03T17:48:15.288Z,98255.41
2022-10-03T17:51:10.377Z,98232.06
2022-10-03T17:53:38.344Z,98224.44
2022-10-03T17:56:20.367Z,98173.63
2022-10-03T17:59:09.536Z,98154.56
2022-10-03T18:01:52.610Z,98082.75
2022-10-03T18:04:28.201Z,98050.34
2022-10-03T18:07:03.322Z,98006.50
2022-10-03T18:09:45.661Z,98052.19
2022-10-03T18:12:25.492Z,98077.25
2022-10-03T18:15:16.444Z,98101.69
2022-10-03T18:18:40.513Z,98097.09
2022-10-03T18:21:18.605Z,98113.22
2022-10-03T18:24:13.156Z,98102.59
2022-10-03T18:26:46.539Z,98113.00
2022-10-03T18:29:18.681Z,98104.25
2022-10-03T18:32:13.221Z,98104.53
2022-10-03T18:34:59.654Z,98095.88
2022-10-03T18:37:25.989Z,98085.84
2022-10-03T18:39:55.433Z,98078.75
2022-10-03T18:42:30.819Z,98127.19
2022-10-03T18:45:00.065Z,98126.84
2022-10-03T18:47:52.438Z,98125.28
2022-10-03T18:50:26.249Z,98121.78
2022-10-03T18:53:08.939Z,98124.25
2022-10-03T18:55:41.691Z,98121.59
2022-10-03T18:58:25.130Z,98106.53
2022-10-03T19:01:24.499Z,98100.03
2022-10-03T19:04:08.986Z,98100.44
2022-10-03T19:06:43.387Z,98105.81
2022-10-03T19:09:22.345Z,98105.59
2022-10-03T19:12:09.936Z,98091.91
2022-10-03T19:14:45.479Z,98079.44
2022-10-03T19:17:21.166Z,98084.47
2022-10-03T19:19:57.917Z,98078.28
2022-10-03T19:22:32.956Z,98082.59
2022-10-03T19:25:05.144Z,98089.53
2022-10-03T19:27:43.675Z,98086.50
2022-10-03T19:30:18.589Z,98101.84
2022-10-03T19:32:52.729Z,98095.34
2022-10-03T19:35:21.920Z,98085.47
2022-10-03T19:37:53.818Z,98087.13
2022-10-03T19:40:42.295Z,98075.22
2022-10-03T19:43:36.329Z,98080.06
2022-10-03T19:46:22.966Z,98082.63
2022-10-03T19:48:55.444Z,98080.97
2022-10-03T19:51:25.821Z,98077.97
2022-10-03T19:53:54.665Z,98076.00
2022-10-03T19:56:24.063Z,98064.06
2022-10-03T19:59:05.881Z,98055.94
2022-10-03T20:01:49.748Z,98043.75
2022-10-03T20:04:35.703Z,98042.28
2022-10-03T20:07:16.087Z,98034.84
2022-10-03T20:09:56.184Z,98038.63
2022-10-03T20:12:27.809Z,98048.56
2022-10-03T20:14:58.115Z,98046.91
2022-10-03T20:17:25.104Z,98041.66
2022-10-03T20:20:01.231Z,98046.63
2022-10-03T20:22:31.028Z,98047.97
2022-10-03T20:24:59.510Z,98047.66
2022-10-03T20:27:34.486Z,98047.97
2022-10-03T20:30:35.784Z,98059.44
2022-10-03T20:33:04.574Z,98055.13
2022-10-03T20:35:58.015Z,98054.44
2022-10-03T20:38:55.198Z,98048.56
2022-10-03T20:41:32.100Z,98045.53
2022-10-03T20:44:14.949Z,98039.97
2022-10-03T20:46:47.669Z,98040.28
2022-10-03T20:49:35.676Z,98030.94
2022-10-03T20:52:08.550Z,98051.16
2022-10-03T20:54:36.924Z,98064.53
2022-10-03T20:57:24.298Z,98072.06
2022-10-03T21:00:18.985Z,98075.53
2022-10-03T21:03:27.117Z,98084.31
2022-10-03T21:05:56.932Z,98088.34
2022-10-03T21:08:32.945Z,98093.31
2022-10-03T21:11:19.915Z,98092.88
2022-10-03T21:14:19.958Z,98085.63
2022-10-03T21:16:51.458Z,98092.81
2022-10-03T21:19:34.039Z,98102.84
2022-10-03T21:22:04.351Z,98103.19
2022-10-03T21:24:52.688Z,98103.19
2022-10-03T21:27:20.785Z,98096.06
2022-10-03T21:30:14.071Z,98109.13
2022-10-03T21:33:00.840Z,98111.75
2022-10-03T21:35:35.305Z,98107.06
2022-10-03T21:38:32.732Z,98102.34
2022-10-03T21:41:36.398Z,98101.41
2022-10-03T21:44:33.757Z,98107.97
2022-10-03T21:47:18.065Z,98106.00
2022-10-03T21:49:53.955Z,98099.91
2022-10-03T21:52:44.904Z,98099.06
2022-10-03T21:55:51.225Z,98099.34
2022-10-03T21:58:37.459Z,98077.25
2022-10-03T22:01:18.059Z,98089.09
2022-10-03T22:04:15.493Z,98087.47
2022-10-03T22:06:55.052Z,98084.97
2022-10-03T22:09:21.462Z,98083.94
2022-10-03T22:11:58.567Z,98090.38
2022-10-03T22:14:44.854Z,98075.34
2022-10-03T22:17:29.773Z,98084.94
2022-10-03T22:20:19.915Z,98102.63
2022-10-03T22:23:07.907Z,98101.94
2022-10-03T22:25:42.098Z,98096.13
2022-10-03T22:28:32.675Z,98105.59
2022-10-03T22:31:27.342Z,98101.44
2022-10-03T22:34:32.644Z,98103.13
2022-10-03T22:36:59.817Z,98106.22
2022-10-03T22:39:28.346Z,98099.41
2022-10-03T22:41:59.454Z,98097.06
2022-10-03T22:44:31.193Z,98101.78
2022-10-03T22:47:06.895Z,98105.16
2022-10-03T22:49:38.465Z,98111.22
2022-10-03T22:52:08.182Z,98107.34
2022-10-03T22:54:39.980Z,98101.69
2022-10-03T22:57:09.313Z,98113.06
2022-10-03T22:59:55.363Z,98108.06
2022-10-03T23:02:33.058Z,98113.19
2022-10-03T23:05:09.617Z,98104.59
2022-10-03T23:07:56.224Z,98109.88
2022-10-03T23:10:28.928Z,98098.78
2022-10-03T23:13:15.191Z,98104.75
2022-10-03T23:15:44.919Z,98094.75
2022-10-03T23:18:33.945Z,98106.28
2022-10-03T23:21:08.737Z,98103.25
2022-10-03T23:24:08.456Z,98109.59
2022-10-03T23:27:16.325Z,98107.97
2022-10-03T23:29:42.697Z,98083.03
2022-10-03T23:32:10.824Z,98085.66
2022-10-03T23:34:37.263Z,98102.16
2022-10-03T23:37:15.670Z,98093.81
2022-10-03T23:39:57.274Z,98100.75
2022-10-03T23:42:41.850Z,98099.38
2022-10-03T23:45:11.055Z,98097.19
2022-10-03T23:47:49.889Z,98085.25
2022-10-03T23:50:26.689Z,98088.03
2022-10-03T23:52:56.875Z,98094.97
2022-10-03T23:55:27.118Z,98090.81
2022-10-03T23:57:53.924Z,98100.22
